createdAt,value
2018-07-17T00:00:31.021Z,0
2018-07-17T00:01:30.034Z,0
2018-07-17T00:02:30.603Z,0
2018-07-17T00:03:30.091Z,0
2018-07-17T00:04:30.648Z,0
2018-07-17T00:05:30.397Z,0
2018-07-17T00:06:30.424Z,0
2018-07-17T00:07:30.209Z,0
2018-07-17T00:08:30.741Z,0
2018-07-17T00:09:30.870Z,0
2018-07-17T00:10:30.534Z,0
2018-07-17T00:11:30.819Z,0
2018-07-17T00:12:30.583Z,0
2018-07-17T00:13:30.603Z,0
2018-07-17T00:14:30.632Z,0
2018-07-17T00:15:30.912Z,0
2018-07-17T00:16:30.695Z,0
2018-07-17T00:17:30.714Z,0
2018-07-17T00:18:30.758Z,0
2018-07-17T00:19:31.029Z,0
2018-07-17T00:20:31.040Z,0
2018-07-17T00:21:30.808Z,0
2018-07-17T00:22:30.589Z,0
2018-07-17T00:23:30.599Z,0
2018-07-17T00:24:30.621Z,0
2018-07-17T00:25:30.907Z,0
2018-07-17T00:26:31.225Z,0
2018-07-17T00:27:30.954Z,0
2018-07-17T00:28:30.981Z,0
2018-07-17T00:29:31.026Z,0
2018-07-17T00:30:31.291Z,0
2018-07-17T00:31:30.803Z,0
2018-07-17T00:32:31.353Z,0
2018-07-17T00:33:31.113Z,0
2018-07-17T00:34:30.880Z,0
2018-07-17T00:35:31.164Z,0
2018-07-17T00:36:31.186Z,0
2018-07-17T00:37:31.475Z,0
2018-07-17T00:38:31.504Z,0
2018-07-17T00:39:31.261Z,0
2018-07-17T00:40:31.560Z,0
2018-07-17T00:41:31.566Z,0
2018-07-17T00:42:31.603Z,0
2018-07-17T00:43:31.514Z,0
2018-07-17T00:44:31.123Z,0
2018-07-17T00:45:31.414Z,0
2018-07-17T00:46:31.180Z,0
2018-07-17T00:47:31.457Z,0
2018-07-17T00:48:31.756Z,0
2018-07-17T00:49:31.249Z,0
2018-07-17T00:50:31.549Z,0
2018-07-17T00:51:31.566Z,0
2018-07-17T00:52:31.593Z,0
2018-07-17T00:53:31.618Z,0
2018-07-17T00:54:31.655Z,0
2018-07-17T00:55:31.679Z,0
2018-07-17T00:56:31.950Z,0
2018-07-17T00:57:31.461Z,0
2018-07-17T00:58:31.738Z,0
2018-07-17T00:59:31.238Z,0
2018-07-17T01:00:31.786Z,0
2018-07-17T01:01:32.091Z,0
2018-07-17T01:02:31.834Z,0
2018-07-17T01:03:31.859Z,0
2018-07-17T01:04:31.884Z,0
2018-07-17T01:05:31.913Z,0
2018-07-17T01:06:31.939Z,0
2018-07-17T01:07:32.218Z,0
2018-07-17T01:08:31.993Z,0
2018-07-17T01:09:32.015Z,0
2018-07-17T01:10:32.295Z,0
2018-07-17T01:11:32.060Z,0
2018-07-17T01:12:32.373Z,0
2018-07-17T01:13:32.367Z,0
2018-07-17T01:14:32.138Z,0
2018-07-17T01:15:32.424Z,0
2018-07-17T01:16:32.187Z,0
2018-07-17T01:17:31.941Z,0
2018-07-17T01:18:31.967Z,0
2018-07-17T01:19:32.528Z,0
2018-07-17T01:20:32.543Z,0
2018-07-17T01:21:32.563Z,0
2018-07-17T01:22:32.588Z,0
2018-07-17T01:23:32.353Z,0
2018-07-17T01:24:32.379Z,0
2018-07-17T01:25:32.406Z,0
2018-07-17T01:26:32.691Z,0
2018-07-17T01:27:32.722Z,0
2018-07-17T01:28:32.224Z,0
2018-07-17T01:29:32.765Z,0
2018-07-17T01:30:32.006Z,0
2018-07-17T01:31:32.815Z,0
2018-07-17T01:32:32.846Z,0
2018-07-17T01:33:32.863Z,0
2018-07-17T01:34:32.624Z,0
2018-07-17T01:35:32.656Z,0
2018-07-17T01:36:32.678Z,0
2018-07-17T01:37:32.961Z,0
2018-07-17T01:38:32.986Z,0
2018-07-17T01:39:32.494Z,0
2018-07-17T01:40:33.034Z,0
2018-07-17T01:41:33.057Z,0
2018-07-17T01:42:33.077Z,0
2018-07-17T01:43:33.107Z,0
2018-07-17T01:44:33.131Z,0
2018-07-17T01:45:33.158Z,0
2018-07-17T01:46:33.184Z,0
2018-07-17T01:47:32.936Z,0
2018-07-17T01:48:33.224Z,0
2018-07-17T01:49:33.041Z,0
2018-07-17T01:50:33.275Z,0
2018-07-17T01:51:33.043Z,0
2018-07-17T01:52:33.065Z,0
2018-07-17T01:53:33.085Z,0
2018-07-17T01:54:33.107Z,0
2018-07-17T01:55:33.417Z,0
2018-07-17T01:56:33.572Z,0
2018-07-17T01:57:33.805Z,0
2018-07-17T01:58:33.461Z,0
2018-07-17T01:59:33.485Z,0
2018-07-17T02:00:32.991Z,0
2018-07-17T02:01:33.021Z,0
2018-07-17T02:02:33.304Z,0
2018-07-17T02:03:33.590Z,0
2018-07-17T02:04:33.610Z,0
2018-07-17T02:05:33.376Z,0
2018-07-17T02:06:33.656Z,0
2018-07-17T02:07:33.429Z,0
2018-07-17T02:08:33.445Z,0
2018-07-17T02:09:33.476Z,0
2018-07-17T02:10:33.756Z,0
2018-07-17T02:11:33.841Z,0
2018-07-17T02:12:33.543Z,0
2018-07-17T02:13:33.834Z,0
2018-07-17T02:14:33.857Z,0
2018-07-17T02:15:33.874Z,0
2018-07-17T02:16:33.898Z,0
2018-07-17T02:17:33.668Z,0
2018-07-17T02:18:33.970Z,0
2018-07-17T02:19:33.457Z,0
2018-07-17T02:20:33.482Z,0
2018-07-17T02:21:34.025Z,0
2018-07-17T02:22:33.269Z,0
2018-07-17T02:23:34.067Z,0
2018-07-17T02:24:34.097Z,0
2018-07-17T02:25:34.155Z,0
2018-07-17T02:26:34.140Z,0
2018-07-17T02:27:34.172Z,0
2018-07-17T02:28:34.357Z,0
2018-07-17T02:29:34.210Z,0
2018-07-17T02:30:34.147Z,0
2018-07-17T02:31:34.005Z,0
2018-07-17T02:32:34.291Z,0
2018-07-17T02:33:34.676Z,0
2018-07-17T02:34:34.336Z,0
2018-07-17T02:35:33.835Z,0
2018-07-17T02:36:34.399Z,0
2018-07-17T02:37:34.164Z,0
2018-07-17T02:38:33.908Z,0
2018-07-17T02:39:34.198Z,0
2018-07-17T02:40:34.498Z,0
2018-07-17T02:41:34.496Z,0
2018-07-17T02:42:34.986Z,0
2018-07-17T02:43:34.547Z,0
2018-07-17T02:44:34.603Z,0
2018-07-17T02:45:33.902Z,0
2018-07-17T02:46:34.623Z,0
2018-07-17T02:47:34.121Z,0
2018-07-17T02:48:34.421Z,0
2018-07-17T02:49:34.431Z,0
2018-07-17T02:50:34.460Z,0
2018-07-17T02:51:34.478Z,0
2018-07-17T02:52:34.242Z,4
2018-07-17T02:53:34.521Z,4
2018-07-17T02:54:34.817Z,4
2018-07-17T02:55:34.840Z,4
2018-07-17T02:56:34.592Z,0
2018-07-17T02:57:34.634Z,4
2018-07-17T02:58:34.680Z,4
2018-07-17T02:59:34.662Z,4
2018-07-17T03:00:34.427Z,8
2018-07-17T03:01:34.710Z,8
2018-07-17T03:02:34.736Z,4
2018-07-17T03:03:35.018Z,8
2018-07-17T03:04:34.784Z,8
2018-07-17T03:05:35.066Z,12
2018-07-17T03:06:34.842Z,8
2018-07-17T03:07:35.120Z,12
2018-07-17T03:08:34.695Z,12
2018-07-17T03:09:34.649Z,12
2018-07-17T03:10:35.184Z,12
2018-07-17T03:11:34.682Z,16
2018-07-17T03:12:34.968Z,12
2018-07-17T03:13:35.258Z,16
2018-07-17T03:14:35.284Z,20
2018-07-17T03:15:35.651Z,16
2018-07-17T03:16:35.317Z,20
2018-07-17T03:17:35.092Z,24
2018-07-17T03:18:35.368Z,24
2018-07-17T03:19:35.412Z,28
2018-07-17T03:20:35.432Z,24
2018-07-17T03:21:35.455Z,28
2018-07-17T03:22:35.466Z,28
2018-07-17T03:23:35.227Z,32
2018-07-17T03:24:35.711Z,32
2018-07-17T03:25:35.536Z,36
2018-07-17T03:26:35.297Z,36
2018-07-17T03:27:35.337Z,40
2018-07-17T03:28:35.605Z,40
2018-07-17T03:29:35.366Z,40
2018-07-17T03:30:35.659Z,44
2018-07-17T03:31:35.671Z,44
2018-07-17T03:32:35.436Z,52
2018-07-17T03:33:35.717Z,52
2018-07-17T03:34:35.734Z,52
2018-07-17T03:35:35.507Z,56
2018-07-17T03:36:36.148Z,60
2018-07-17T03:37:35.548Z,60
2018-07-17T03:38:35.837Z,64
2018-07-17T03:39:35.603Z,68
2018-07-17T03:40:35.615Z,68
2018-07-17T03:41:35.903Z,72
2018-07-17T03:42:35.405Z,72
2018-07-17T03:43:35.951Z,80
2018-07-17T03:44:35.705Z,80
2018-07-17T03:45:35.736Z,80
2018-07-17T03:46:36.023Z,84
2018-07-17T03:47:35.778Z,88
2018-07-17T03:48:36.063Z,92
2018-07-17T03:49:36.091Z,96
2018-07-17T03:50:35.844Z,96
2018-07-17T03:51:35.613Z,100
2018-07-17T03:52:36.155Z,104
2018-07-17T03:53:36.178Z,104
2018-07-17T03:54:35.948Z,108
2018-07-17T03:55:36.231Z,112
2018-07-17T03:56:36.047Z,116
2018-07-17T03:57:36.011Z,120
2018-07-17T03:58:36.298Z,124
2018-07-17T03:59:36.346Z,128
2018-07-17T04:00:36.095Z,128
2018-07-17T04:01:36.103Z,132
2018-07-17T04:02:36.408Z,140
2018-07-17T04:03:36.411Z,140
2018-07-17T04:04:36.174Z,140
2018-07-17T04:05:36.456Z,144
2018-07-17T04:06:36.221Z,148
2018-07-17T04:07:35.984Z,156
2018-07-17T04:08:36.339Z,156
2018-07-17T04:09:36.297Z,156
2018-07-17T04:10:36.576Z,160
2018-07-17T04:11:36.332Z,160
2018-07-17T04:12:36.620Z,160
2018-07-17T04:13:36.585Z,168
2018-07-17T04:14:36.662Z,168
2018-07-17T04:15:36.690Z,168
2018-07-17T04:16:36.719Z,168
2018-07-17T04:17:36.739Z,172
2018-07-17T04:18:36.489Z,176
2018-07-17T04:19:36.515Z,176
2018-07-17T04:20:36.804Z,180
2018-07-17T04:21:36.804Z,184
2018-07-17T04:22:36.610Z,184
2018-07-17T04:23:36.350Z,184
2018-07-17T04:24:36.112Z,188
2018-07-17T04:25:36.660Z,188
2018-07-17T04:26:36.677Z,192
2018-07-17T04:27:36.699Z,196
2018-07-17T04:28:36.741Z,196
2018-07-17T04:29:37.004Z,196
2018-07-17T04:30:37.032Z,196
2018-07-17T04:31:37.206Z,200
2018-07-17T04:32:36.554Z,200
2018-07-17T04:33:36.836Z,204
2018-07-17T04:34:36.597Z,204
2018-07-17T04:35:36.887Z,204
2018-07-17T04:36:37.552Z,208
2018-07-17T04:37:37.187Z,208
2018-07-17T04:38:37.111Z,208
2018-07-17T04:39:36.724Z,212
2018-07-17T04:40:37.015Z,216
2018-07-17T04:41:37.281Z,216
2018-07-17T04:42:37.307Z,220
2018-07-17T04:43:37.332Z,224
2018-07-17T04:44:37.542Z,224
2018-07-17T04:45:37.406Z,224
2018-07-17T04:46:37.142Z,232
2018-07-17T04:47:37.439Z,232
2018-07-17T04:48:37.183Z,232
2018-07-17T04:49:37.482Z,236
2018-07-17T04:50:36.967Z,240
2018-07-17T04:51:36.737Z,240
2018-07-17T04:52:37.534Z,240
2018-07-17T04:53:37.552Z,244
2018-07-17T04:54:37.328Z,244
2018-07-17T04:55:37.338Z,248
2018-07-17T04:56:37.624Z,248
2018-07-17T04:57:37.647Z,252
2018-07-17T04:58:37.412Z,252
2018-07-17T04:59:37.685Z,248
2018-07-17T05:00:37.718Z,252
2018-07-17T05:01:38.031Z,256
2018-07-17T05:02:37.500Z,256
2018-07-17T05:03:37.791Z,260
2018-07-17T05:04:37.288Z,256
2018-07-17T05:05:37.568Z,260
2018-07-17T05:06:37.587Z,260
2018-07-17T05:07:37.624Z,260
2018-07-17T05:08:37.374Z,264
2018-07-17T05:09:37.930Z,268
2018-07-17T05:10:37.941Z,268
2018-07-17T05:11:37.968Z,268
2018-07-17T05:12:38.044Z,272
2018-07-17T05:13:37.746Z,272
2018-07-17T05:14:37.769Z,272
2018-07-17T05:15:37.796Z,272
2018-07-17T05:16:38.049Z,276
2018-07-17T05:17:38.116Z,276
2018-07-17T05:18:38.119Z,276
2018-07-17T05:19:38.144Z,280
2018-07-17T05:20:38.173Z,280
2018-07-17T05:21:37.948Z,284
2018-07-17T05:22:37.951Z,284
2018-07-17T05:23:38.273Z,284
2018-07-17T05:24:38.005Z,284
2018-07-17T05:25:38.284Z,288
2018-07-17T05:26:38.305Z,288
2018-07-17T05:27:38.322Z,284
2018-07-17T05:28:38.341Z,284
2018-07-17T05:29:38.110Z,288
2018-07-17T05:30:38.130Z,292
2018-07-17T05:31:38.207Z,292
2018-07-17T05:32:38.537Z,296
2018-07-17T05:33:38.211Z,292
2018-07-17T05:34:37.979Z,296
2018-07-17T05:35:38.560Z,296
2018-07-17T05:36:38.263Z,292
2018-07-17T05:37:38.554Z,296
2018-07-17T05:38:38.572Z,300
2018-07-17T05:39:38.602Z,296
2018-07-17T05:40:38.359Z,300
2018-07-17T05:41:38.428Z,300
2018-07-17T05:42:38.673Z,300
2018-07-17T05:43:38.161Z,304
2018-07-17T05:44:38.719Z,304
2018-07-17T05:45:38.728Z,300
2018-07-17T05:46:38.845Z,304
2018-07-17T05:47:38.517Z,304
2018-07-17T05:48:38.800Z,308
2018-07-17T05:49:38.826Z,316
2018-07-17T05:50:38.842Z,312
2018-07-17T05:51:38.615Z,316
2018-07-17T05:52:38.895Z,312
2018-07-17T05:53:38.717Z,316
2018-07-17T05:54:38.688Z,316
2018-07-17T05:55:38.701Z,324
2018-07-17T05:56:38.473Z,320
2018-07-17T05:57:38.754Z,320
2018-07-17T05:58:38.764Z,324
2018-07-17T05:59:39.057Z,324
2018-07-17T06:00:39.076Z,324
2018-07-17T06:01:38.834Z,328
2018-07-17T06:02:38.862Z,328
2018-07-17T06:03:38.884Z,328
2018-07-17T06:04:38.908Z,328
2018-07-17T06:05:38.921Z,332
2018-07-17T06:06:38.431Z,328
2018-07-17T06:07:38.976Z,332
2018-07-17T06:08:38.502Z,328
2018-07-17T06:09:39.021Z,328
2018-07-17T06:10:39.299Z,332
2018-07-17T06:11:39.061Z,328
2018-07-17T06:12:39.085Z,328
2018-07-17T06:13:39.123Z,332
2018-07-17T06:14:39.400Z,332
2018-07-17T06:15:39.412Z,332
2018-07-17T06:16:39.438Z,332
2018-07-17T06:17:39.461Z,332
2018-07-17T06:18:39.225Z,332
2018-07-17T06:19:39.507Z,336
2018-07-17T06:20:39.265Z,336
2018-07-17T06:21:39.559Z,336
2018-07-17T06:22:39.576Z,340
2018-07-17T06:23:39.653Z,340
2018-07-17T06:24:39.638Z,348
2018-07-17T06:25:39.647Z,348
2018-07-17T06:26:39.406Z,352
2018-07-17T06:27:39.736Z,352
2018-07-17T06:28:39.456Z,352
2018-07-17T06:29:39.731Z,352
2018-07-17T06:30:40.040Z,352
2018-07-17T06:31:39.785Z,356
2018-07-17T06:32:39.291Z,356
2018-07-17T06:33:39.565Z,356
2018-07-17T06:34:39.878Z,360
2018-07-17T06:35:39.923Z,364
2018-07-17T06:36:39.890Z,368
2018-07-17T06:37:39.927Z,376
2018-07-17T06:38:39.932Z,376
2018-07-17T06:39:39.966Z,380
2018-07-17T06:40:39.732Z,384
2018-07-17T06:41:40.010Z,384
2018-07-17T06:42:40.137Z,388
2018-07-17T06:43:40.053Z,392
2018-07-17T06:44:40.235Z,396
2018-07-17T06:45:40.424Z,396
2018-07-17T06:46:39.860Z,400
2018-07-17T06:47:39.884Z,404
2018-07-17T06:48:39.904Z,400
2018-07-17T06:49:39.930Z,400
2018-07-17T06:50:41.009Z,396
2018-07-17T06:51:39.968Z,396
2018-07-17T06:52:40.253Z,400
2018-07-17T06:53:39.761Z,400
2018-07-17T06:54:40.302Z,404
2018-07-17T06:55:40.327Z,400
2018-07-17T06:56:40.350Z,400
2018-07-17T06:57:40.375Z,400
2018-07-17T06:58:40.397Z,400
2018-07-17T06:59:40.425Z,396
2018-07-17T07:00:40.442Z,396
2018-07-17T07:01:40.461Z,400
2018-07-17T07:02:40.231Z,396
2018-07-17T07:03:40.254Z,404
2018-07-17T07:04:40.270Z,408
2018-07-17T07:05:40.558Z,408
2018-07-17T07:06:40.059Z,408
2018-07-17T07:07:40.340Z,412
2018-07-17T07:08:40.375Z,412
2018-07-17T07:09:40.126Z,412
2018-07-17T07:10:40.406Z,408
2018-07-17T07:11:40.690Z,412
2018-07-17T07:12:40.712Z,412
2018-07-17T07:13:40.474Z,416
2018-07-17T07:14:40.501Z,416
2018-07-17T07:15:40.542Z,416
2018-07-17T07:16:40.545Z,416
2018-07-17T07:17:40.833Z,416
2018-07-17T07:18:40.592Z,420
2018-07-17T07:19:40.894Z,420
2018-07-17T07:20:40.901Z,420
2018-07-17T07:21:40.923Z,428
2018-07-17T07:22:40.680Z,428
2018-07-17T07:23:40.444Z,432
2018-07-17T07:24:40.734Z,432
2018-07-17T07:25:40.751Z,436
2018-07-17T07:26:40.518Z,436
2018-07-17T07:27:40.811Z,436
2018-07-17T07:28:40.833Z,436
2018-07-17T07:29:41.118Z,440
2018-07-17T07:30:40.616Z,440
2018-07-17T07:31:41.152Z,440
2018-07-17T07:32:41.182Z,444
2018-07-17T07:33:40.941Z,440
2018-07-17T07:34:40.961Z,440
2018-07-17T07:35:41.248Z,448
2018-07-17T07:36:41.266Z,448
2018-07-17T07:37:41.034Z,456
2018-07-17T07:38:40.813Z,468
2018-07-17T07:39:41.086Z,476
2018-07-17T07:40:41.098Z,476
2018-07-17T07:41:41.392Z,480
2018-07-17T07:42:41.450Z,484
2018-07-17T07:43:41.173Z,492
2018-07-17T07:44:41.197Z,496
2018-07-17T07:45:41.481Z,496
2018-07-17T07:46:41.519Z,492
2018-07-17T07:47:41.269Z,492
2018-07-17T07:48:41.286Z,496
2018-07-17T07:49:41.587Z,496
2018-07-17T07:50:41.341Z,500
2018-07-17T07:51:41.618Z,504
2018-07-17T07:52:41.661Z,508
2018-07-17T07:53:41.152Z,516
2018-07-17T07:54:41.690Z,520
2018-07-17T07:55:41.334Z,532
2018-07-17T07:56:41.491Z,540
2018-07-17T07:57:41.516Z,544
2018-07-17T07:58:41.525Z,548
2018-07-17T07:59:41.550Z,556
2018-07-17T08:00:41.836Z,564
2018-07-17T08:01:41.602Z,568
2018-07-17T08:02:41.880Z,568
2018-07-17T08:03:41.917Z,564
2018-07-17T08:04:41.738Z,564
2018-07-17T08:05:41.954Z,564
2018-07-17T08:06:42.030Z,572
2018-07-17T08:07:41.740Z,572
2018-07-17T08:08:42.020Z,576
2018-07-17T08:09:42.062Z,588
2018-07-17T08:10:41.551Z,596
2018-07-17T08:11:41.947Z,604
2018-07-17T08:12:41.860Z,628
2018-07-17T08:13:42.151Z,636
2018-07-17T08:14:42.186Z,652
2018-07-17T08:15:41.936Z,660
2018-07-17T08:16:42.219Z,672
2018-07-17T08:17:41.979Z,688
2018-07-17T08:18:42.264Z,712
2018-07-17T08:19:42.030Z,732
2018-07-17T08:20:42.323Z,760
2018-07-17T08:21:41.824Z,796
2018-07-17T08:22:42.376Z,824
2018-07-17T08:23:42.404Z,872
2018-07-17T08:24:41.890Z,928
2018-07-17T08:25:42.182Z,968
2018-07-17T08:26:42.476Z,996
2018-07-17T08:27:42.240Z,1036
2018-07-17T08:28:42.258Z,1064
2018-07-17T08:29:42.821Z,1100
2018-07-17T08:30:42.560Z,1120
2018-07-17T08:31:42.071Z,1140
2018-07-17T08:32:42.610Z,1148
2018-07-17T08:33:42.109Z,1176
2018-07-17T08:34:42.660Z,1184
2018-07-17T08:35:42.544Z,1180
2018-07-17T08:36:42.190Z,1180
2018-07-17T08:37:42.742Z,1176
2018-07-17T08:38:42.247Z,1160
2018-07-17T08:39:42.527Z,1164
2018-07-17T08:40:42.285Z,1164
2018-07-17T08:41:42.577Z,1156
2018-07-17T08:42:42.603Z,1152
2018-07-17T08:43:43.020Z,1128
2018-07-17T08:44:42.914Z,1116
2018-07-17T08:45:42.941Z,1108
2018-07-17T08:46:42.702Z,1100
2018-07-17T08:47:42.728Z,1092
2018-07-17T08:48:42.490Z,1092
2018-07-17T08:49:43.048Z,1076
2018-07-17T08:50:43.070Z,1080
2018-07-17T08:51:42.830Z,1068
2018-07-17T08:52:43.115Z,1012
2018-07-17T08:53:42.881Z,1028
2018-07-17T08:54:43.626Z,1048
2018-07-17T08:55:42.675Z,1052
2018-07-17T08:56:43.218Z,1040
2018-07-17T08:57:42.993Z,800
2018-07-17T08:58:43.038Z,1060
2018-07-17T08:59:43.296Z,1080
2018-07-17T09:00:43.061Z,1076
2018-07-17T09:01:43.356Z,1044
2018-07-17T09:02:43.107Z,1044
2018-07-17T09:03:43.399Z,1060
2018-07-17T09:04:43.171Z,1072
2018-07-17T09:05:43.451Z,1096
2018-07-17T09:06:43.479Z,1116
2018-07-17T09:07:43.505Z,1128
2018-07-17T09:08:43.529Z,1168
2018-07-17T09:09:43.564Z,1188
2018-07-17T09:10:43.583Z,1196
2018-07-17T09:11:43.085Z,1324
2018-07-17T09:12:43.628Z,1504
2018-07-17T09:13:43.657Z,1676
2018-07-17T09:14:43.684Z,1896
2018-07-17T09:15:43.711Z,1760
2018-07-17T09:16:43.744Z,1352
2018-07-17T09:17:43.756Z,1196
2018-07-17T09:18:43.793Z,1092
2018-07-17T09:19:43.821Z,1132
2018-07-17T09:20:43.584Z,1256
2018-07-17T09:21:44.090Z,1344
2018-07-17T09:22:43.908Z,1216
2018-07-17T09:23:43.669Z,1160
2018-07-17T09:24:43.692Z,1156
2018-07-17T09:25:43.973Z,784
2018-07-17T09:26:43.740Z,1208
2018-07-17T09:27:44.039Z,1232
2018-07-17T09:28:43.798Z,1156
2018-07-17T09:29:43.834Z,1164
2018-07-17T09:30:44.111Z,1196
2018-07-17T09:31:44.136Z,1264
2018-07-17T09:32:43.701Z,1272
2018-07-17T09:33:44.179Z,1404
2018-07-17T09:34:43.962Z,1480
2018-07-17T09:35:44.244Z,1408
2018-07-17T09:36:44.018Z,1396
2018-07-17T09:37:44.045Z,1372
2018-07-17T09:38:44.076Z,1336
2018-07-17T09:39:44.110Z,1416
2018-07-17T09:40:44.127Z,1492
2018-07-17T09:41:44.420Z,1580
2018-07-17T09:42:44.979Z,1744
2018-07-17T09:43:44.465Z,2020
2018-07-17T09:44:44.249Z,1804
2018-07-17T09:45:44.279Z,1652
2018-07-17T09:46:44.288Z,1564
2018-07-17T09:47:44.580Z,1636
2018-07-17T09:48:44.346Z,1720
2018-07-17T09:49:44.123Z,1772
2018-07-17T09:50:44.404Z,1832
2018-07-17T09:51:44.425Z,1832
2018-07-17T09:52:44.461Z,1856
2018-07-17T09:53:44.755Z,1864
2018-07-17T09:54:44.519Z,1796
2018-07-17T09:55:44.806Z,1820
2018-07-17T09:56:44.574Z,1920
2018-07-17T09:57:44.599Z,1848
2018-07-17T09:58:44.624Z,1768
2018-07-17T09:59:44.915Z,1760
2018-07-17T10:00:44.946Z,1264
2018-07-17T10:01:44.450Z,1780
2018-07-17T10:02:45.011Z,1764
2018-07-17T10:03:45.035Z,1740
2018-07-17T10:04:44.618Z,1740
2018-07-17T10:05:44.837Z,1736
2018-07-17T10:06:44.603Z,1744
2018-07-17T10:07:45.146Z,1768
2018-07-17T10:08:45.170Z,1768
2018-07-17T10:09:44.954Z,1836
2018-07-17T10:10:44.973Z,2064
2018-07-17T10:11:45.284Z,2088
2018-07-17T10:12:45.031Z,1880
2018-07-17T10:13:45.328Z,1728
2018-07-17T10:14:45.224Z,1216
2018-07-17T10:15:45.380Z,1004
2018-07-17T10:16:45.409Z,1300
2018-07-17T10:17:45.437Z,1676
2018-07-17T10:18:45.468Z,1668
2018-07-17T10:19:45.501Z,1676
2018-07-17T10:20:45.274Z,1688
2018-07-17T10:21:45.559Z,1688
2018-07-17T10:22:45.600Z,1696
2018-07-17T10:23:45.615Z,1716
2018-07-17T10:24:45.388Z,1744
2018-07-17T10:25:45.675Z,1840
2018-07-17T10:26:45.973Z,1956
2018-07-17T10:27:45.734Z,2000
2018-07-17T10:28:45.764Z,1940
2018-07-17T10:29:45.806Z,1788
2018-07-17T10:30:45.563Z,1768
2018-07-17T10:31:45.865Z,1800
2018-07-17T10:32:45.888Z,1820
2018-07-17T10:33:45.411Z,1672
2018-07-17T10:34:45.941Z,1632
2018-07-17T10:35:45.985Z,1616
2018-07-17T10:36:45.751Z,1284
2018-07-17T10:37:45.773Z,1600
2018-07-17T10:38:46.196Z,1748
2018-07-17T10:39:45.319Z,1948
2018-07-17T10:40:45.868Z,1932
2018-07-17T10:41:45.893Z,2032
2018-07-17T10:42:46.388Z,1964
2018-07-17T10:43:45.963Z,2504
2018-07-17T10:44:45.985Z,2764
2018-07-17T10:45:46.016Z,2708
2018-07-17T10:46:46.310Z,2952
2018-07-17T10:47:46.703Z,1980
2018-07-17T10:48:46.372Z,1864
2018-07-17T10:49:46.405Z,2552
2018-07-17T10:50:46.436Z,2572
2018-07-17T10:51:46.201Z,2044
2018-07-17T10:52:46.497Z,1500
2018-07-17T10:53:46.266Z,2380
2018-07-17T10:54:46.301Z,2352
2018-07-17T10:55:46.329Z,2276
2018-07-17T10:56:46.114Z,2256
2018-07-17T10:57:46.394Z,2224
2018-07-17T10:58:46.761Z,2324
2018-07-17T10:59:46.708Z,2348
2018-07-17T11:00:46.480Z,2432
2018-07-17T11:01:46.516Z,2512
2018-07-17T11:02:46.807Z,2552
2018-07-17T11:03:46.839Z,2564
2018-07-17T11:04:46.889Z,2556
2018-07-17T11:05:46.905Z,2528
2018-07-17T11:06:46.434Z,2500
2018-07-17T11:07:46.964Z,2460
2018-07-17T11:08:46.476Z,2436
2018-07-17T11:09:47.031Z,2420
2018-07-17T11:10:46.800Z,2416
2018-07-17T11:11:46.844Z,2408
2018-07-17T11:12:47.130Z,2388
2018-07-17T11:13:47.158Z,2352
2018-07-17T11:14:46.927Z,2340
2018-07-17T11:15:47.218Z,2316
2018-07-17T11:16:46.989Z,2304
2018-07-17T11:17:47.288Z,2316
2018-07-17T11:18:47.055Z,2284
2018-07-17T11:19:47.084Z,2280
2018-07-17T11:20:47.386Z,2300
2018-07-17T11:21:47.417Z,2328
2018-07-17T11:22:47.447Z,2384
2018-07-17T11:23:47.212Z,2384
2018-07-17T11:24:47.250Z,2364
2018-07-17T11:25:47.542Z,2368
2018-07-17T11:26:47.579Z,2436
2018-07-17T11:27:47.084Z,2476
2018-07-17T11:28:47.378Z,2512
2018-07-17T11:29:47.678Z,2580
2018-07-17T11:30:47.700Z,2652
2018-07-17T11:31:47.478Z,2704
2018-07-17T11:32:47.806Z,2796
2018-07-17T11:33:47.797Z,2988
2018-07-17T11:34:47.318Z,2848
2018-07-17T11:35:47.346Z,2812
2018-07-17T11:36:47.900Z,2728
2018-07-17T11:37:47.415Z,2664
2018-07-17T11:38:48.008Z,2624
2018-07-17T11:39:47.999Z,2708
2018-07-17T11:40:47.779Z,2716
2018-07-17T11:41:47.807Z,2688
2018-07-17T11:42:48.105Z,2684
2018-07-17T11:43:47.878Z,2716
2018-07-17T11:44:47.906Z,2732
2018-07-17T11:45:47.944Z,2852
2018-07-17T11:46:48.235Z,2792
2018-07-17T11:47:48.478Z,2788
2018-07-17T11:48:48.302Z,2808
2018-07-17T11:49:48.340Z,2892
2018-07-17T11:50:48.366Z,2904
2018-07-17T11:51:48.416Z,2840
2018-07-17T11:52:48.432Z,2836
2018-07-17T11:53:48.469Z,2960
2018-07-17T11:54:48.241Z,2992
2018-07-17T11:55:48.016Z,3120
2018-07-17T11:56:48.308Z,3156
2018-07-17T11:57:48.605Z,3184
2018-07-17T11:58:48.445Z,3060
2018-07-17T11:59:48.144Z,3096
2018-07-17T12:00:48.457Z,3196
2018-07-17T12:01:48.218Z,3280
2018-07-17T12:02:48.509Z,3216
2018-07-17T12:03:48.806Z,3152
2018-07-17T12:04:48.844Z,3212
2018-07-17T12:05:49.141Z,2024
2018-07-17T12:06:48.649Z,3208
2018-07-17T12:07:48.695Z,3208
2018-07-17T12:08:48.975Z,3172
2018-07-17T12:09:48.745Z,3168
2018-07-17T12:10:49.059Z,3188
2018-07-17T12:11:49.079Z,3208
2018-07-17T12:12:49.638Z,3220
2018-07-17T12:13:49.158Z,3228
2018-07-17T12:14:49.178Z,3204
2018-07-17T12:15:49.227Z,3184
2018-07-17T12:16:48.733Z,3204
2018-07-17T12:17:49.280Z,3264
2018-07-17T12:18:48.800Z,3260
2018-07-17T12:19:49.516Z,3308
2018-07-17T12:20:49.388Z,3284
2018-07-17T12:21:49.424Z,3344
2018-07-17T12:22:49.195Z,3360
2018-07-17T12:23:49.487Z,3372
2018-07-17T12:24:49.533Z,3376
2018-07-17T12:25:49.570Z,3376
2018-07-17T12:26:49.333Z,3436
2018-07-17T12:27:49.374Z,3480
2018-07-17T12:28:49.463Z,3524
2018-07-17T12:29:49.180Z,3564
2018-07-17T12:30:49.739Z,3632
2018-07-17T12:31:49.512Z,3584
2018-07-17T12:32:49.550Z,3624
2018-07-17T12:33:49.851Z,3620
2018-07-17T12:34:49.744Z,3668
2018-07-17T12:35:49.928Z,3612
2018-07-17T12:36:49.952Z,3552
2018-07-17T12:37:49.982Z,3512
2018-07-17T12:38:49.501Z,3540
2018-07-17T12:39:50.057Z,3524
2018-07-17T12:40:50.090Z,3528
2018-07-17T12:41:49.609Z,3512
2018-07-17T12:42:50.162Z,3504
2018-07-17T12:43:50.207Z,3564
2018-07-17T12:44:50.231Z,3568
2018-07-17T12:45:50.276Z,3568
2018-07-17T12:46:50.303Z,3592
2018-07-17T12:47:50.080Z,3604
2018-07-17T12:48:50.376Z,3584
2018-07-17T12:49:49.917Z,3552
2018-07-17T12:50:49.659Z,3640
2018-07-17T12:51:50.484Z,3864
2018-07-17T12:52:50.262Z,3976
2018-07-17T12:53:50.554Z,3944
2018-07-17T12:54:50.585Z,3992
2018-07-17T12:55:50.622Z,3700
2018-07-17T12:56:50.403Z,3580
2018-07-17T12:57:50.444Z,3692
2018-07-17T12:58:50.475Z,3908
2018-07-17T12:59:50.503Z,3816
2018-07-17T13:00:50.550Z,3964
2018-07-17T13:01:50.842Z,3976
2018-07-17T13:02:50.792Z,4212
2018-07-17T13:03:50.662Z,4604
2018-07-17T13:04:50.428Z,4724
2018-07-17T13:05:50.987Z,2280
2018-07-17T13:06:51.031Z,3908
2018-07-17T13:07:50.285Z,3664
2018-07-17T13:08:50.833Z,3644
2018-07-17T13:09:51.150Z,3656
2018-07-17T13:10:50.911Z,3652
2018-07-17T13:11:51.200Z,3664
2018-07-17T13:12:51.262Z,3740
2018-07-17T13:13:51.290Z,3764
2018-07-17T13:14:51.247Z,3856
2018-07-17T13:15:51.087Z,3956
2018-07-17T13:16:51.129Z,3888
2018-07-17T13:17:51.415Z,3916
2018-07-17T13:18:50.954Z,4024
2018-07-17T13:19:50.972Z,4116
2018-07-17T13:20:51.535Z,4092
2018-07-17T13:21:51.565Z,4128
2018-07-17T13:22:51.599Z,4164
2018-07-17T13:23:51.799Z,4244
2018-07-17T13:24:51.685Z,4224
2018-07-17T13:25:50.939Z,4308
2018-07-17T13:26:51.754Z,4228
2018-07-17T13:27:51.007Z,1432
2018-07-17T13:28:51.826Z,4304
2018-07-17T13:29:51.606Z,4212
2018-07-17T13:30:51.895Z,4252
2018-07-17T13:31:51.987Z,4304
2018-07-17T13:32:51.978Z,4348
2018-07-17T13:33:51.748Z,4432
2018-07-17T13:34:52.079Z,4488
2018-07-17T13:35:52.085Z,4700
2018-07-17T13:36:51.864Z,4996
2018-07-17T13:37:52.163Z,5308
2018-07-17T13:38:51.938Z,5528
2018-07-17T13:39:51.973Z,3920
2018-07-17T13:40:52.265Z,4660
2018-07-17T13:41:52.304Z,2260
2018-07-17T13:42:52.344Z,5240
2018-07-17T13:43:52.781Z,2032
2018-07-17T13:44:52.753Z,1920
2018-07-17T13:45:52.483Z,5220
2018-07-17T13:46:52.490Z,5332
2018-07-17T13:47:52.010Z,5252
2018-07-17T13:48:52.561Z,5392
2018-07-17T13:49:52.605Z,5668